sensor_id;sensor_type;location;lat;lon;timestamp;P1;durP1;ratioP1;P2;durP2;ratioP2
15096;SDS011;7649;52.084;7.478;2024-02-04T00:01:57;21.20;;;18.70;;
15096;SDS011;7649;52.084;7.478;2024-02-04T00:04:26;21.67;;;17.60;;
15096;SDS011;7649;52.084;7.478;2024-02-04T00:06:54;24.40;;;18.60;;
15096;SDS011;7649;52.084;7.478;2024-02-04T00:09:23;24.57;;;19.03;;
15096;SDS011;7649;52.084;7.478;2024-02-04T00:11:54;24.87;;;19.30;;
15096;SDS011;7649;52.084;7.478;2024-02-04T00:14:26;24.13;;;18.90;;
15096;SDS011;7649;52.084;7.478;2024-02-04T00:16:54;26.73;;;20.20;;
15096;SDS011;7649;52.084;7.478;2024-02-04T00:19:23;27.00;;;20.50;;
15096;SDS011;7649;52.084;7.478;2024-02-04T00:21:51;24.63;;;20.90;;
15096;SDS011;7649;52.084;7.478;2024-02-04T00:24:20;23.97;;;20.83;;
15096;SDS011;7649;52.084;7.478;2024-02-04T00:26:48;28.13;;;21.53;;
15096;SDS011;7649;52.084;7.478;2024-02-04T00:29:17;23.90;;;20.47;;
15096;SDS011;7649;52.084;7.478;2024-02-04T00:31:47;27.23;;;21.73;;
15096;SDS011;7649;52.084;7.478;2024-02-04T00:34:15;25.37;;;20.70;;
15096;SDS011;7649;52.084;7.478;2024-02-04T00:36:44;25.17;;;20.47;;
15096;SDS011;7649;52.084;7.478;2024-02-04T00:39:13;23.60;;;20.17;;
15096;SDS011;7649;52.084;7.478;2024-02-04T00:41:41;24.23;;;20.13;;
15096;SDS011;7649;52.084;7.478;2024-02-04T00:44:10;23.33;;;19.33;;
15096;SDS011;7649;52.084;7.478;2024-02-04T00:46:38;23.57;;;20.30;;
15096;SDS011;7649;52.084;7.478;2024-02-04T00:49:08;23.70;;;20.10;;
15096;SDS011;7649;52.084;7.478;2024-02-04T00:51:37;23.37;;;19.50;;
15096;SDS011;7649;52.084;7.478;2024-02-04T00:54:05;22.97;;;19.07;;
15096;SDS011;7649;52.084;7.478;2024-02-04T00:56:33;21.10;;;18.60;;
15096;SDS011;7649;52.084;7.478;2024-02-04T00:59:04;20.63;;;18.47;;
15096;SDS011;7649;52.084;7.478;2024-02-04T01:01:32;20.07;;;18.10;;
15096;SDS011;7649;52.084;7.478;2024-02-04T01:04:01;20.10;;;16.77;;
15096;SDS011;7649;52.084;7.478;2024-02-04T01:06:31;17.17;;;15.33;;
15096;SDS011;7649;52.084;7.478;2024-02-04T01:09:16;16.23;;;14.50;;
15096;SDS011;7649;52.084;7.478;2024-02-04T01:11:45;16.87;;;15.00;;
15096;SDS011;7649;52.084;7.478;2024-02-04T01:14:13;15.93;;;12.97;;
15096;SDS011;7649;52.084;7.478;2024-02-04T01:16:42;13.93;;;12.63;;
15096;SDS011;7649;52.084;7.478;2024-02-04T01:19:10;13.17;;;11.87;;
15096;SDS011;7649;52.084;7.478;2024-02-04T01:21:40;12.93;;;11.53;;
15096;SDS011;7649;52.084;7.478;2024-02-04T01:24:10;12.47;;;11.27;;
15096;SDS011;7649;52.084;7.478;2024-02-04T01:26:38;12.17;;;10.87;;
15096;SDS011;7649;52.084;7.478;2024-02-04T01:29:07;12.00;;;10.90;;
15096;SDS011;7649;52.084;7.478;2024-02-04T01:31:35;11.90;;;10.60;;
15096;SDS011;7649;52.084;7.478;2024-02-04T01:34:04;11.47;;;10.27;;
15096;SDS011;7649;52.084;7.478;2024-02-04T01:36:32;11.30;;;10.20;;
15096;SDS011;7649;52.084;7.478;2024-02-04T01:39:16;10.83;;;9.77;;
15096;SDS011;7649;52.084;7.478;2024-02-04T01:41:45;10.17;;;9.27;;
15096;SDS011;7649;52.084;7.478;2024-02-04T01:44:13;9.40;;;8.50;;
15096;SDS011;7649;52.084;7.478;2024-02-04T01:46:43;9.40;;;8.60;;
15096;SDS011;7649;52.084;7.478;2024-02-04T01:49:11;11.40;;;9.07;;
15096;SDS011;7649;52.084;7.478;2024-02-04T01:51:40;9.20;;;8.40;;
15096;SDS011;7649;52.084;7.478;2024-02-04T01:54:09;9.37;;;8.57;;
15096;SDS011;7649;52.084;7.478;2024-02-04T01:56:39;9.10;;;7.73;;
15096;SDS011;7649;52.084;7.478;2024-02-04T01:59:08;9.10;;;8.30;;
15096;SDS011;7649;52.084;7.478;2024-02-04T02:01:38;8.97;;;8.10;;
15096;SDS011;7649;52.084;7.478;2024-02-04T02:04:07;8.63;;;7.83;;
15096;SDS011;7649;52.084;7.478;2024-02-04T02:06:36;9.27;;;8.37;;
15096;SDS011;7649;52.084;7.478;2024-02-04T02:09:08;9.50;;;8.47;;
15096;SDS011;7649;52.084;7.478;2024-02-04T02:11:41;10.33;;;9.20;;
15096;SDS011;7649;52.084;7.478;2024-02-04T02:14:12;9.93;;;9.03;;
15096;SDS011;7649;52.084;7.478;2024-02-04T02:16:42;9.63;;;8.70;;
15096;SDS011;7649;52.084;7.478;2024-02-04T02:19:16;9.37;;;8.43;;
15096;SDS011;7649;52.084;7.478;2024-02-04T02:21:50;9.33;;;8.43;;
15096;SDS011;7649;52.084;7.478;2024-02-04T02:24:28;9.43;;;8.53;;
15096;SDS011;7649;52.084;7.478;2024-02-04T02:26:58;9.50;;;8.57;;
15096;SDS011;7649;52.084;7.478;2024-02-04T02:29:26;8.67;;;7.87;;
15096;SDS011;7649;52.084;7.478;2024-02-04T02:31:55;7.47;;;6.77;;
15096;SDS011;7649;52.084;7.478;2024-02-04T02:34:24;8.20;;;7.43;;
15096;SDS011;7649;52.084;7.478;2024-02-04T02:37:07;6.87;;;6.17;;
15096;SDS011;7649;52.084;7.478;2024-02-04T02:39:39;8.83;;;6.60;;
15096;SDS011;7649;52.084;7.478;2024-02-04T02:42:08;9.23;;;6.43;;
15096;SDS011;7649;52.084;7.478;2024-02-04T02:44:38;6.73;;;6.13;;
15096;SDS011;7649;52.084;7.478;2024-02-04T02:47:06;6.77;;;5.83;;
15096;SDS011;7649;52.084;7.478;2024-02-04T02:49:36;7.07;;;6.00;;
15096;SDS011;7649;52.084;7.478;2024-02-04T02:52:04;7.20;;;6.53;;
15096;SDS011;7649;52.084;7.478;2024-02-04T02:54:33;7.20;;;5.97;;
15096;SDS011;7649;52.084;7.478;2024-02-04T02:57:04;6.53;;;5.80;;
15096;SDS011;7649;52.084;7.478;2024-02-04T02:59:32;6.40;;;5.73;;
15096;SDS011;7649;52.084;7.478;2024-02-04T03:02:02;6.10;;;5.37;;
15096;SDS011;7649;52.084;7.478;2024-02-04T03:04:30;6.53;;;5.63;;
15096;SDS011;7649;52.084;7.478;2024-02-04T03:06:59;5.77;;;5.07;;
15096;SDS011;7649;52.084;7.478;2024-02-04T03:09:28;5.57;;;4.77;;
15096;SDS011;7649;52.084;7.478;2024-02-04T03:11:56;5.70;;;5.20;;
15096;SDS011;7649;52.084;7.478;2024-02-04T03:14:26;6.00;;;5.40;;
15096;SDS011;7649;52.084;7.478;2024-02-04T03:16:55;5.27;;;4.70;;
15096;SDS011;7649;52.084;7.478;2024-02-04T03:19:23;5.23;;;4.73;;
15096;SDS011;7649;52.084;7.478;2024-02-04T03:21:52;4.50;;;4.10;;
15096;SDS011;7649;52.084;7.478;2024-02-04T03:24:20;4.63;;;4.20;;
15096;SDS011;7649;52.084;7.478;2024-02-04T03:26:49;5.63;;;4.50;;
15096;SDS011;7649;52.084;7.478;2024-02-04T03:29:17;5.27;;;4.80;;
15096;SDS011;7649;52.084;7.478;2024-02-04T03:31:47;5.33;;;4.93;;
15096;SDS011;7649;52.084;7.478;2024-02-04T03:34:15;5.50;;;4.90;;
15096;SDS011;7649;52.084;7.478;2024-02-04T03:36:44;5.47;;;4.97;;
15096;SDS011;7649;52.084;7.478;2024-02-04T03:39:13;5.57;;;5.00;;
15096;SDS011;7649;52.084;7.478;2024-02-04T03:41:41;5.50;;;5.00;;
15096;SDS011;7649;52.084;7.478;2024-02-04T03:44:11;5.57;;;5.07;;
15096;SDS011;7649;52.084;7.478;2024-02-04T03:46:40;5.57;;;4.50;;
15096;SDS011;7649;52.084;7.478;2024-02-04T03:49:10;5.30;;;4.80;;
15096;SDS011;7649;52.084;7.478;2024-02-04T03:51:39;5.00;;;4.43;;
15096;SDS011;7649;52.084;7.478;2024-02-04T03:54:08;5.90;;;4.73;;
15096;SDS011;7649;52.084;7.478;2024-02-04T03:56:36;5.07;;;4.27;;
15096;SDS011;7649;52.084;7.478;2024-02-04T03:59:04;6.43;;;4.70;;
15096;SDS011;7649;52.084;7.478;2024-02-04T04:01:33;4.60;;;4.20;;
15096;SDS011;7649;52.084;7.478;2024-02-04T04:04:03;5.23;;;4.73;;
15096;SDS011;7649;52.084;7.478;2024-02-04T04:06:38;4.87;;;4.43;;
15096;SDS011;7649;52.084;7.478;2024-02-04T04:09:09;6.00;;;4.40;;
15096;SDS011;7649;52.084;7.478;2024-02-04T04:11:38;5.50;;;4.50;;
15096;SDS011;7649;52.084;7.478;2024-02-04T04:14:06;4.30;;;3.90;;
15096;SDS011;7649;52.084;7.478;2024-02-04T04:16:34;4.80;;;4.03;;
15096;SDS011;7649;52.084;7.478;2024-02-04T04:19:03;4.60;;;3.90;;
15096;SDS011;7649;52.084;7.478;2024-02-04T04:21:33;4.13;;;3.60;;
15096;SDS011;7649;52.084;7.478;2024-02-04T04:24:04;6.33;;;3.43;;
15096;SDS011;7649;52.084;7.478;2024-02-04T04:26:32;5.00;;;3.97;;
15096;SDS011;7649;52.084;7.478;2024-02-04T04:29:00;4.57;;;3.40;;
15096;SDS011;7649;52.084;7.478;2024-02-04T04:31:29;6.80;;;3.33;;
15096;SDS011;7649;52.084;7.478;2024-02-04T04:33:57;4.17;;;3.77;;
15096;SDS011;7649;52.084;7.478;2024-02-04T04:36:26;4.27;;;3.60;;
15096;SDS011;7649;52.084;7.478;2024-02-04T04:38:55;5.20;;;3.57;;
15096;SDS011;7649;52.084;7.478;2024-02-04T04:41:24;8.90;;;4.07;;
15096;SDS011;7649;52.084;7.478;2024-02-04T04:43:53;6.50;;;3.40;;
15096;SDS011;7649;52.084;7.478;2024-02-04T04:46:21;4.90;;;3.80;;
15096;SDS011;7649;52.084;7.478;2024-02-04T04:48:50;7.00;;;4.20;;
15096;SDS011;7649;52.084;7.478;2024-02-04T04:51:19;7.33;;;3.80;;
15096;SDS011;7649;52.084;7.478;2024-02-04T04:53:48;6.43;;;3.90;;
15096;SDS011;7649;52.084;7.478;2024-02-04T04:56:18;5.53;;;4.00;;
15096;SDS011;7649;52.084;7.478;2024-02-04T04:58:46;5.73;;;3.70;;
15096;SDS011;7649;52.084;7.478;2024-02-04T05:01:16;6.00;;;4.13;;
15096;SDS011;7649;52.084;7.478;2024-02-04T05:03:45;6.80;;;4.03;;
15096;SDS011;7649;52.084;7.478;2024-02-04T05:06:14;8.27;;;4.80;;
15096;SDS011;7649;52.084;7.478;2024-02-04T05:08:43;6.23;;;5.07;;
15096;SDS011;7649;52.084;7.478;2024-02-04T05:11:12;6.80;;;5.20;;
15096;SDS011;7649;52.084;7.478;2024-02-04T05:13:42;7.37;;;5.27;;
15096;SDS011;7649;52.084;7.478;2024-02-04T05:16:10;7.10;;;5.40;;
15096;SDS011;7649;52.084;7.478;2024-02-04T05:18:39;9.10;;;5.30;;
15096;SDS011;7649;52.084;7.478;2024-02-04T05:21:08;7.03;;;5.00;;
15096;SDS011;7649;52.084;7.478;2024-02-04T05:23:36;6.87;;;5.20;;
15096;SDS011;7649;52.084;7.478;2024-02-04T05:26:05;6.73;;;4.83;;
15096;SDS011;7649;52.084;7.478;2024-02-04T05:28:33;6.87;;;5.20;;
15096;SDS011;7649;52.084;7.478;2024-02-04T05:31:03;6.37;;;4.47;;
15096;SDS011;7649;52.084;7.478;2024-02-04T05:33:32;11.40;;;5.23;;
15096;SDS011;7649;52.084;7.478;2024-02-04T05:36:01;7.23;;;5.77;;
15096;SDS011;7649;52.084;7.478;2024-02-04T05:38:30;7.50;;;5.20;;
15096;SDS011;7649;52.084;7.478;2024-02-04T05:40:58;10.30;;;5.47;;
15096;SDS011;7649;52.084;7.478;2024-02-04T05:43:27;11.60;;;6.17;;
15096;SDS011;7649;52.084;7.478;2024-02-04T05:45:55;8.87;;;6.57;;
15096;SDS011;7649;52.084;7.478;2024-02-04T05:48:25;8.80;;;6.60;;
15096;SDS011;7649;52.084;7.478;2024-02-04T05:50:54;10.13;;;5.90;;
15096;SDS011;7649;52.084;7.478;2024-02-04T05:53:22;8.37;;;6.13;;
15096;SDS011;7649;52.084;7.478;2024-02-04T05:55:51;11.20;;;6.87;;
15096;SDS011;7649;52.084;7.478;2024-02-04T05:58:19;11.33;;;7.27;;
15096;SDS011;7649;52.084;7.478;2024-02-04T06:00:48;10.47;;;6.57;;
15096;SDS011;7649;52.084;7.478;2024-02-04T06:03:16;7.87;;;5.93;;
15096;SDS011;7649;52.084;7.478;2024-02-04T06:05:47;11.83;;;6.50;;
15096;SDS011;7649;52.084;7.478;2024-02-04T06:08:15;8.13;;;5.47;;
15096;SDS011;7649;52.084;7.478;2024-02-04T06:10:44;7.50;;;5.03;;
15096;SDS011;7649;52.084;7.478;2024-02-04T06:13:12;6.87;;;5.60;;
15096;SDS011;7649;52.084;7.478;2024-02-04T06:15:41;8.43;;;6.00;;
15096;SDS011;7649;52.084;7.478;2024-02-04T06:18:09;8.47;;;5.57;;
15096;SDS011;7649;52.084;7.478;2024-02-04T06:20:38;9.47;;;6.10;;
15096;SDS011;7649;52.084;7.478;2024-02-04T06:23:08;11.93;;;6.50;;
15096;SDS011;7649;52.084;7.478;2024-02-04T06:25:36;12.97;;;5.67;;
15096;SDS011;7649;52.084;7.478;2024-02-04T06:28:05;7.27;;;5.33;;
15096;SDS011;7649;52.084;7.478;2024-02-04T06:30:35;8.07;;;5.10;;
15096;SDS011;7649;52.084;7.478;2024-02-04T06:33:03;10.37;;;5.60;;
15096;SDS011;7649;52.084;7.478;2024-02-04T06:35:32;10.97;;;5.43;;
15096;SDS011;7649;52.084;7.478;2024-02-04T06:38:00;8.53;;;5.10;;
15096;SDS011;7649;52.084;7.478;2024-02-04T06:40:30;7.17;;;5.40;;
15096;SDS011;7649;52.084;7.478;2024-02-04T06:42:59;12.27;;;6.13;;
15096;SDS011;7649;52.084;7.478;2024-02-04T06:45:27;9.37;;;5.17;;
15096;SDS011;7649;52.084;7.478;2024-02-04T06:47:56;8.23;;;4.90;;
15096;SDS011;7649;52.084;7.478;2024-02-04T06:50:24;7.77;;;5.20;;
15096;SDS011;7649;52.084;7.478;2024-02-04T06:52:53;6.70;;;4.90;;
15096;SDS011;7649;52.084;7.478;2024-02-04T06:55:21;9.03;;;4.67;;
15096;SDS011;7649;52.084;7.478;2024-02-04T06:57:51;9.70;;;4.90;;
15096;SDS011;7649;52.084;7.478;2024-02-04T07:00:20;7.63;;;5.20;;
15096;SDS011;7649;52.084;7.478;2024-02-04T07:02:49;6.93;;;4.27;;
15096;SDS011;7649;52.084;7.478;2024-02-04T07:05:17;9.17;;;4.50;;
15096;SDS011;7649;52.084;7.478;2024-02-04T07:07:48;9.97;;;4.20;;
15096;SDS011;7649;52.084;7.478;2024-02-04T07:10:17;6.13;;;3.53;;
15096;SDS011;7649;52.084;7.478;2024-02-04T07:12:46;8.43;;;3.67;;
15096;SDS011;7649;52.084;7.478;2024-02-04T07:15:16;7.50;;;3.40;;
15096;SDS011;7649;52.084;7.478;2024-02-04T07:17:44;9.83;;;3.70;;
15096;SDS011;7649;52.084;7.478;2024-02-04T07:20:13;9.60;;;3.50;;
15096;SDS011;7649;52.084;7.478;2024-02-04T07:22:42;9.00;;;2.90;;
15096;SDS011;7649;52.084;7.478;2024-02-04T07:25:11;7.23;;;2.90;;
15096;SDS011;7649;52.084;7.478;2024-02-04T07:27:39;6.90;;;3.03;;
15096;SDS011;7649;52.084;7.478;2024-02-04T07:30:08;5.87;;;2.90;;
15096;SDS011;7649;52.084;7.478;2024-02-04T07:32:38;7.27;;;2.90;;
15096;SDS011;7649;52.084;7.478;2024-02-04T07:35:07;7.47;;;2.93;;
15096;SDS011;7649;52.084;7.478;2024-02-04T07:37:36;7.07;;;3.03;;
15096;SDS011;7649;52.084;7.478;2024-02-04T07:40:05;9.23;;;3.00;;
15096;SDS011;7649;52.084;7.478;2024-02-04T07:42:34;7.33;;;2.80;;
15096;SDS011;7649;52.084;7.478;2024-02-04T07:45:03;9.50;;;3.53;;
15096;SDS011;7649;52.084;7.478;2024-02-04T07:47:35;10.87;;;3.50;;
15096;SDS011;7649;52.084;7.478;2024-02-04T07:50:07;6.83;;;2.97;;
15096;SDS011;7649;52.084;7.478;2024-02-04T07:52:36;7.07;;;3.10;;
15096;SDS011;7649;52.084;7.478;2024-02-04T07:55:10;9.03;;;3.10;;
15096;SDS011;7649;52.084;7.478;2024-02-04T07:57:38;8.50;;;3.47;;
15096;SDS011;7649;52.084;7.478;2024-02-04T08:00:07;6.20;;;3.10;;
15096;SDS011;7649;52.084;7.478;2024-02-04T08:02:37;6.07;;;2.87;;
15096;SDS011;7649;52.084;7.478;2024-02-04T08:05:08;11.63;;;3.43;;
15096;SDS011;7649;52.084;7.478;2024-02-04T08:07:36;10.77;;;2.90;;
15096;SDS011;7649;52.084;7.478;2024-02-04T08:10:05;9.77;;;2.90;;
15096;SDS011;7649;52.084;7.478;2024-02-04T08:12:34;5.33;;;2.80;;
15096;SDS011;7649;52.084;7.478;2024-02-04T08:15:03;8.40;;;3.23;;
15096;SDS011;7649;52.084;7.478;2024-02-04T08:17:32;9.13;;;3.30;;
15096;SDS011;7649;52.084;7.478;2024-02-04T08:20:01;13.40;;;3.40;;
15096;SDS011;7649;52.084;7.478;2024-02-04T08:22:32;10.67;;;3.53;;
15096;SDS011;7649;52.084;7.478;2024-02-04T08:25:00;8.73;;;3.10;;
15096;SDS011;7649;52.084;7.478;2024-02-04T08:27:29;6.93;;;3.27;;
15096;SDS011;7649;52.084;7.478;2024-02-04T08:29:58;7.70;;;3.80;;
15096;SDS011;7649;52.084;7.478;2024-02-04T08:32:26;5.87;;;3.70;;
15096;SDS011;7649;52.084;7.478;2024-02-04T08:34:54;8.70;;;4.17;;
15096;SDS011;7649;52.084;7.478;2024-02-04T08:37:23;10.27;;;4.93;;
15096;SDS011;7649;52.084;7.478;2024-02-04T08:39:55;10.40;;;5.80;;
15096;SDS011;7649;52.084;7.478;2024-02-04T08:42:24;12.77;;;4.87;;
15096;SDS011;7649;52.084;7.478;2024-02-04T08:44:52;10.60;;;5.10;;
15096;SDS011;7649;52.084;7.478;2024-02-04T08:47:21;10.90;;;4.87;;
15096;SDS011;7649;52.084;7.478;2024-02-04T08:49:49;6.37;;;3.37;;
15096;SDS011;7649;52.084;7.478;2024-02-04T08:52:18;9.30;;;4.13;;
15096;SDS011;7649;52.084;7.478;2024-02-04T08:54:46;10.50;;;4.10;;
15096;SDS011;7649;52.084;7.478;2024-02-04T08:57:16;7.67;;;4.20;;
15096;SDS011;7649;52.084;7.478;2024-02-04T08:59:44;7.07;;;3.97;;
15096;SDS011;7649;52.084;7.478;2024-02-04T09:02:13;8.13;;;4.30;;
15096;SDS011;7649;52.084;7.478;2024-02-04T09:04:41;10.30;;;4.30;;
15096;SDS011;7649;52.084;7.478;2024-02-04T09:07:10;8.37;;;4.30;;
15096;SDS011;7649;52.084;7.478;2024-02-04T09:09:38;8.53;;;4.10;;
15096;SDS011;7649;52.084;7.478;2024-02-04T09:12:07;6.37;;;3.10;;
15096;SDS011;7649;52.084;7.478;2024-02-04T09:14:37;8.97;;;2.90;;
15096;SDS011;7649;52.084;7.478;2024-02-04T09:17:05;8.40;;;3.50;;
15096;SDS011;7649;52.084;7.478;2024-02-04T09:19:35;6.03;;;3.40;;
15096;SDS011;7649;52.084;7.478;2024-02-04T09:22:08;5.43;;;3.10;;
15096;SDS011;7649;52.084;7.478;2024-02-04T09:24:49;7.73;;;3.53;;
15096;SDS011;7649;52.084;7.478;2024-02-04T09:27:17;5.87;;;3.33;;
15096;SDS011;7649;52.084;7.478;2024-02-04T09:29:47;6.13;;;3.20;;
15096;SDS011;7649;52.084;7.478;2024-02-04T09:32:16;5.67;;;3.60;;
15096;SDS011;7649;52.084;7.478;2024-02-04T09:34:46;7.70;;;3.47;;
15096;SDS011;7649;52.084;7.478;2024-02-04T09:37:14;5.17;;;3.00;;
15096;SDS011;7649;52.084;7.478;2024-02-04T09:39:43;8.57;;;3.30;;
15096;SDS011;7649;52.084;7.478;2024-02-04T09:42:14;6.40;;;3.30;;
15096;SDS011;7649;52.084;7.478;2024-02-04T09:44:48;7.90;;;3.70;;
15096;SDS011;7649;52.084;7.478;2024-02-04T09:47:17;8.20;;;3.87;;
15096;SDS011;7649;52.084;7.478;2024-02-04T09:49:45;8.43;;;3.87;;
15096;SDS011;7649;52.084;7.478;2024-02-04T09:52:16;8.23;;;4.57;;
15096;SDS011;7649;52.084;7.478;2024-02-04T09:54:48;8.13;;;4.03;;
15096;SDS011;7649;52.084;7.478;2024-02-04T09:57:17;5.80;;;3.70;;
15096;SDS011;7649;52.084;7.478;2024-02-04T09:59:47;7.20;;;4.23;;
15096;SDS011;7649;52.084;7.478;2024-02-04T10:02:16;5.77;;;3.80;;
15096;SDS011;7649;52.084;7.478;2024-02-04T10:04:47;8.77;;;4.63;;
15096;SDS011;7649;52.084;7.478;2024-02-04T10:07:16;7.17;;;4.90;;
15096;SDS011;7649;52.084;7.478;2024-02-04T10:09:45;9.50;;;5.13;;
15096;SDS011;7649;52.084;7.478;2024-02-04T10:12:13;11.23;;;5.47;;
15096;SDS011;7649;52.084;7.478;2024-02-04T10:14:42;8.80;;;5.70;;
15096;SDS011;7649;52.084;7.478;2024-02-04T10:17:12;8.50;;;4.60;;
15096;SDS011;7649;52.084;7.478;2024-02-04T10:19:41;6.73;;;5.10;;
15096;SDS011;7649;52.084;7.478;2024-02-04T10:22:10;6.43;;;5.43;;
15096;SDS011;7649;52.084;7.478;2024-02-04T10:24:39;11.03;;;5.60;;
15096;SDS011;7649;52.084;7.478;2024-02-04T10:27:07;12.37;;;5.47;;
15096;SDS011;7649;52.084;7.478;2024-02-04T10:29:41;8.80;;;5.03;;
15096;SDS011;7649;52.084;7.478;2024-02-04T10:32:09;7.77;;;5.30;;
15096;SDS011;7649;52.084;7.478;2024-02-04T10:34:46;9.07;;;5.40;;
15096;SDS011;7649;52.084;7.478;2024-02-04T10:37:15;7.23;;;5.30;;
15096;SDS011;7649;52.084;7.478;2024-02-04T10:39:43;9.30;;;5.73;;
15096;SDS011;7649;52.084;7.478;2024-02-04T10:42:12;7.70;;;5.90;;
15096;SDS011;7649;52.084;7.478;2024-02-04T10:44:41;7.27;;;5.90;;
15096;SDS011;7649;52.084;7.478;2024-02-04T10:47:11;9.40;;;5.73;;
15096;SDS011;7649;52.084;7.478;2024-02-04T10:49:43;8.70;;;6.40;;
15096;SDS011;7649;52.084;7.478;2024-02-04T10:52:18;7.17;;;5.50;;
15096;SDS011;7649;52.084;7.478;2024-02-04T10:54:47;7.23;;;5.30;;
15096;SDS011;7649;52.084;7.478;2024-02-04T10:57:17;8.10;;;5.50;;
15096;SDS011;7649;52.084;7.478;2024-02-04T10:59:49;6.57;;;5.37;;
15096;SDS011;7649;52.084;7.478;2024-02-04T11:02:19;6.60;;;5.03;;
15096;SDS011;7649;52.084;7.478;2024-02-04T11:04:48;8.10;;;5.40;;
15096;SDS011;7649;52.084;7.478;2024-02-04T11:07:18;8.03;;;5.70;;
15096;SDS011;7649;52.084;7.478;2024-02-04T11:09:49;9.40;;;6.03;;
15096;SDS011;7649;52.084;7.478;2024-02-04T11:12:18;8.37;;;5.67;;
15096;SDS011;7649;52.084;7.478;2024-02-04T11:14:49;7.80;;;5.67;;
15096;SDS011;7649;52.084;7.478;2024-02-04T11:17:26;11.07;;;7.87;;
15096;SDS011;7649;52.084;7.478;2024-02-04T11:20:00;6.30;;;5.23;;
15096;SDS011;7649;52.084;7.478;2024-02-04T11:22:37;7.13;;;5.47;;
15096;SDS011;7649;52.084;7.478;2024-02-04T11:25:14;7.77;;;5.23;;
15096;SDS011;7649;52.084;7.478;2024-02-04T11:27:45;9.27;;;5.90;;
15096;SDS011;7649;52.084;7.478;2024-02-04T11:30:15;7.63;;;5.40;;
15096;SDS011;7649;52.084;7.478;2024-02-04T11:32:43;11.23;;;5.80;;
15096;SDS011;7649;52.084;7.478;2024-02-04T11:35:12;12.80;;;5.80;;
15096;SDS011;7649;52.084;7.478;2024-02-04T11:37:42;8.73;;;5.47;;
15096;SDS011;7649;52.084;7.478;2024-02-04T11:40:13;7.27;;;5.40;;
15096;SDS011;7649;52.084;7.478;2024-02-04T11:42:43;8.67;;;5.67;;
15096;SDS011;7649;52.084;7.478;2024-02-04T11:45:13;6.83;;;5.10;;
15096;SDS011;7649;52.084;7.478;2024-02-04T11:47:41;8.67;;;5.10;;
15096;SDS011;7649;52.084;7.478;2024-02-04T11:50:10;8.57;;;5.27;;
15096;SDS011;7649;52.084;7.478;2024-02-04T11:52:39;6.87;;;4.90;;
15096;SDS011;7649;52.084;7.478;2024-02-04T11:55:14;7.20;;;5.17;;
15096;SDS011;7649;52.084;7.478;2024-02-04T11:57:43;5.83;;;4.53;;
15096;SDS011;7649;52.084;7.478;2024-02-04T12:00:12;7.20;;;5.00;;
15096;SDS011;7649;52.084;7.478;2024-02-04T12:02:40;8.23;;;4.70;;
15096;SDS011;7649;52.084;7.478;2024-02-04T12:05:09;6.30;;;4.40;;
15096;SDS011;7649;52.084;7.478;2024-02-04T12:07:37;6.40;;;4.00;;
15096;SDS011;7649;52.084;7.478;2024-02-04T12:10:10;6.13;;;4.03;;
15096;SDS011;7649;52.084;7.478;2024-02-04T12:12:40;7.17;;;4.47;;
15096;SDS011;7649;52.084;7.478;2024-02-04T12:15:08;4.90;;;4.40;;
15096;SDS011;7649;52.084;7.478;2024-02-04T12:17:37;6.63;;;4.33;;
15096;SDS011;7649;52.084;7.478;2024-02-04T12:20:06;5.50;;;4.40;;
15096;SDS011;7649;52.084;7.478;2024-02-04T12:22:34;5.23;;;4.10;;
15096;SDS011;7649;52.084;7.478;2024-02-04T12:25:04;6.00;;;4.20;;
15096;SDS011;7649;52.084;7.478;2024-02-04T12:27:33;4.43;;;3.40;;
15096;SDS011;7649;52.084;7.478;2024-02-04T12:30:04;5.43;;;3.53;;
15096;SDS011;7649;52.084;7.478;2024-02-04T12:32:33;6.10;;;3.80;;
15096;SDS011;7649;52.084;7.478;2024-02-04T12:35:04;7.80;;;4.37;;
15096;SDS011;7649;52.084;7.478;2024-02-04T12:37:33;4.30;;;3.70;;
15096;SDS011;7649;52.084;7.478;2024-02-04T12:40:01;4.43;;;3.57;;
15096;SDS011;7649;52.084;7.478;2024-02-04T12:42:30;4.40;;;3.70;;
15096;SDS011;7649;52.084;7.478;2024-02-04T12:44:59;6.17;;;3.93;;
15096;SDS011;7649;52.084;7.478;2024-02-04T12:47:29;4.53;;;4.00;;
15096;SDS011;7649;52.084;7.478;2024-02-04T12:49:58;5.13;;;4.00;;
15096;SDS011;7649;52.084;7.478;2024-02-04T12:52:28;4.70;;;3.80;;
15096;SDS011;7649;52.084;7.478;2024-02-04T12:55:00;6.07;;;4.00;;
15096;SDS011;7649;52.084;7.478;2024-02-04T12:57:29;3.60;;;3.30;;
15096;SDS011;7649;52.084;7.478;2024-02-04T13:00:03;5.67;;;3.63;;
15096;SDS011;7649;52.084;7.478;2024-02-04T13:02:34;3.97;;;3.30;;
15096;SDS011;7649;52.084;7.478;2024-02-04T13:05:03;3.30;;;3.10;;
15096;SDS011;7649;52.084;7.478;2024-02-04T13:07:31;5.17;;;3.00;;
15096;SDS011;7649;52.084;7.478;2024-02-04T13:10:00;5.77;;;3.33;;
15096;SDS011;7649;52.084;7.478;2024-02-04T13:12:29;4.57;;;3.10;;
15096;SDS011;7649;52.084;7.478;2024-02-04T13:15:00;4.97;;;3.80;;
15096;SDS011;7649;52.084;7.478;2024-02-04T13:17:30;4.10;;;3.10;;
15096;SDS011;7649;52.084;7.478;2024-02-04T13:19:59;3.53;;;3.07;;
15096;SDS011;7649;52.084;7.478;2024-02-04T13:22:28;7.70;;;3.50;;
15096;SDS011;7649;52.084;7.478;2024-02-04T13:24:58;5.10;;;3.70;;
15096;SDS011;7649;52.084;7.478;2024-02-04T13:27:26;4.00;;;3.53;;
15096;SDS011;7649;52.084;7.478;2024-02-04T13:29:54;4.97;;;3.33;;
15096;SDS011;7649;52.084;7.478;2024-02-04T13:32:23;3.30;;;3.10;;
15096;SDS011;7649;52.084;7.478;2024-02-04T13:34:51;4.30;;;3.20;;
15096;SDS011;7649;52.084;7.478;2024-02-04T13:37:36;3.97;;;3.00;;
15096;SDS011;7649;52.084;7.478;2024-02-04T13:40:07;4.03;;;3.23;;
15096;SDS011;7649;52.084;7.478;2024-02-04T13:42:36;3.70;;;3.37;;
15096;SDS011;7649;52.084;7.478;2024-02-04T13:45:05;3.60;;;2.80;;
15096;SDS011;7649;52.084;7.478;2024-02-04T13:47:35;4.10;;;3.27;;
15096;SDS011;7649;52.084;7.478;2024-02-04T13:50:04;3.20;;;2.90;;
15096;SDS011;7649;52.084;7.478;2024-02-04T13:52:36;4.33;;;2.90;;
15096;SDS011;7649;52.084;7.478;2024-02-04T13:58:05;3.57;;;2.73;;
15096;SDS011;7649;52.084;7.478;2024-02-04T14:00:34;5.00;;;2.90;;
15096;SDS011;7649;52.084;7.478;2024-02-04T14:03:03;3.20;;;2.60;;
15096;SDS011;7649;52.084;7.478;2024-02-04T14:05:33;3.33;;;2.67;;
15096;SDS011;7649;52.084;7.478;2024-02-04T14:08:03;4.83;;;2.60;;
15096;SDS011;7649;52.084;7.478;2024-02-04T14:10:32;4.27;;;2.60;;
15096;SDS011;7649;52.084;7.478;2024-02-04T14:13:01;4.03;;;2.70;;
15096;SDS011;7649;52.084;7.478;2024-02-04T14:15:33;2.20;;;2.00;;
15096;SDS011;7649;52.084;7.478;2024-02-04T14:18:02;4.63;;;2.60;;
15096;SDS011;7649;52.084;7.478;2024-02-04T14:20:32;5.10;;;3.10;;
15096;SDS011;7649;52.084;7.478;2024-02-04T14:23:00;1.83;;;1.60;;
15096;SDS011;7649;52.084;7.478;2024-02-04T14:25:30;3.17;;;1.90;;
15096;SDS011;7649;52.084;7.478;2024-02-04T14:27:59;2.37;;;1.93;;
15096;SDS011;7649;52.084;7.478;2024-02-04T14:30:28;1.93;;;1.70;;
15096;SDS011;7649;52.084;7.478;2024-02-04T14:32:57;1.60;;;1.50;;
15096;SDS011;7649;52.084;7.478;2024-02-04T14:35:25;2.27;;;1.90;;
15096;SDS011;7649;52.084;7.478;2024-02-04T14:37:54;2.10;;;2.00;;
15096;SDS011;7649;52.084;7.478;2024-02-04T14:40:22;2.07;;;1.87;;
15096;SDS011;7649;52.084;7.478;2024-02-04T14:42:53;2.37;;;2.10;;
15096;SDS011;7649;52.084;7.478;2024-02-04T14:45:22;2.93;;;1.70;;
15096;SDS011;7649;52.084;7.478;2024-02-04T14:48:00;2.23;;;2.03;;
15096;SDS011;7649;52.084;7.478;2024-02-04T14:50:31;1.43;;;1.33;;
15096;SDS011;7649;52.084;7.478;2024-02-04T14:53:01;1.87;;;1.77;;
15096;SDS011;7649;52.084;7.478;2024-02-04T14:55:29;1.97;;;1.80;;
15096;SDS011;7649;52.084;7.478;2024-02-04T14:58:00;2.07;;;1.80;;
15096;SDS011;7649;52.084;7.478;2024-02-04T15:00:29;1.90;;;1.70;;
15096;SDS011;7649;52.084;7.478;2024-02-04T15:02:57;2.00;;;1.70;;
15096;SDS011;7649;52.084;7.478;2024-02-04T15:05:26;2.07;;;1.70;;
15096;SDS011;7649;52.084;7.478;2024-02-04T15:07:55;3.10;;;2.10;;
15096;SDS011;7649;52.084;7.478;2024-02-04T15:10:23;3.17;;;2.10;;
15096;SDS011;7649;52.084;7.478;2024-02-04T15:12:52;2.37;;;1.97;;
15096;SDS011;7649;52.084;7.478;2024-02-04T15:15:23;2.13;;;1.77;;